PWSweather.com
Personal Weather Stations
Station Observations
HESKRFRR38
Schwerin, Germany, Klein RogahnDE 19073

Schwerin, GermanyKlein RogahnDE 19073

Lat: 53.6059537, Lon: 11.3412162

Elevation: 167.3226

Station Type: VantagePro2

wetter.hes61.de

High Low Average
Temperature 38.9°F3.8°C 35.9°F2.2°C 37.3°F2.9°C
Dew Point 34.5°F1.4°C 30.7°F-0.7°C 32.0°F0.0°C
Winds 15.0 mph 24.1 kmh 6.0 mph 9.7 kmh 11.0 mph E17.7 kmh E
Wind Gusts 30.0 mph48.3 kmh 10.0 mph16.1 kmh 19.0 mph30.6 kmh
Humidity 88% 79% 81%
Pressure 30.18 in1022.0 mb 29.99 in1015.6 mb -
Precipitation 0.01 in0.3 mm - -
Hour Temp Dew Point Humidity Winds Wind Gusts Pressure Precip Precip Rate Daily Precip Total
12:00 AM 38.9°F3.8°C 34.5°F1.4°C 84% 10.0 mph ENE16.1 kmh ENE 19.0 mph30.6 kmh 30.18 in1022.0 mb 0.00 in0.0 mm 0.00 in0.0 mm 0.01 in0.3 mm
12:05 AM 38.9°F3.8°C 34.5°F1.4°C 84% 10.0 mph NE16.1 kmh NE 18.0 mph29.0 kmh 30.18 in1022.0 mb 0.00 in0.0 mm 0.00 in0.0 mm 0.00 in0.0 mm
12:10 AM 38.9°F3.8°C 34.5°F1.4°C 84% 10.0 mph ENE16.1 kmh ENE 20.0 mph32.2 kmh 30.18 in1022.0 mb 0.00 in0.0 mm 0.00 in0.0 mm 0.00 in0.0 mm
12:15 AM 38.9°F3.8°C 34.5°F1.4°C 84% 10.0 mph ENE16.1 kmh ENE 19.0 mph30.6 kmh 30.18 in1022.0 mb 0.00 in0.0 mm 0.00 in0.0 mm 0.00 in0.0 mm
12:20 AM 38.9°F3.8°C 34.5°F1.4°C 84% 10.0 mph ENE16.1 kmh ENE 21.0 mph33.8 kmh 30.18 in1022.0 mb 0.00 in0.0 mm 0.00 in0.0 mm 0.00 in0.0 mm
12:25 AM 38.9°F3.8°C 34.5°F1.4°C 84% 11.0 mph ENE17.7 kmh ENE 18.0 mph29.0 kmh 30.17 in1021.7 mb 0.00 in0.0 mm 0.00 in0.0 mm 0.00 in0.0 mm
12:30 AM 38.8°F3.8°C 34.4°F1.3°C 84% 11.0 mph ENE17.7 kmh ENE 21.0 mph33.8 kmh 30.17 in1021.7 mb 0.00 in0.0 mm 0.00 in0.0 mm 0.00 in0.0 mm
12:35 AM 38.9°F3.8°C 34.5°F1.4°C 84% 13.0 mph ENE20.9 kmh ENE 19.0 mph30.6 kmh 30.17 in1021.7 mb 0.00 in0.0 mm 0.00 in0.0 mm 0.00 in0.0 mm
12:40 AM 38.9°F3.8°C 34.5°F1.4°C 84% 12.0 mph ENE19.3 kmh ENE 22.0 mph35.4 kmh 30.17 in1021.7 mb 0.00 in0.0 mm 0.00 in0.0 mm 0.00 in0.0 mm
12:45 AM 38.9°F3.8°C 34.5°F1.4°C 84% 11.0 mph ENE17.7 kmh ENE 21.0 mph33.8 kmh 30.17 in1021.7 mb 0.00 in0.0 mm 0.00 in0.0 mm 0.00 in0.0 mm
12:50 AM 38.9°F3.8°C 34.5°F1.4°C 84% 11.0 mph ENE17.7 kmh ENE 19.0 mph30.6 kmh 30.17 in1021.7 mb 0.00 in0.0 mm 0.00 in0.0 mm 0.00 in0.0 mm
12:55 AM 38.9°F3.8°C 34.5°F1.4°C 84% 11.0 mph ENE17.7 kmh ENE 20.0 mph32.2 kmh 30.17 in1021.7 mb 0.00 in0.0 mm 0.00 in0.0 mm 0.00 in0.0 mm
01:00 AM 38.9°F3.8°C 34.5°F1.4°C 84% 12.0 mph ENE19.3 kmh ENE 21.0 mph33.8 kmh 30.17 in1021.7 mb 0.00 in0.0 mm 0.00 in0.0 mm 0.00 in0.0 mm
01:05 AM 38.9°F3.8°C 34.5°F1.4°C 84% 12.0 mph ENE19.3 kmh ENE 20.0 mph32.2 kmh 30.17 in1021.7 mb 0.00 in0.0 mm 0.00 in0.0 mm 0.00 in0.0 mm
01:10 AM 38.8°F3.8°C 34.4°F1.3°C 84% 11.0 mph ENE17.7 kmh ENE 19.0 mph30.6 kmh 30.16 in1021.3 mb 0.00 in0.0 mm 0.00 in0.0 mm 0.00 in0.0 mm
01:15 AM 38.8°F3.8°C 34.4°F1.3°C 84% 12.0 mph ENE19.3 kmh ENE 26.0 mph41.8 kmh 30.16 in1021.3 mb 0.00 in0.0 mm 0.00 in0.0 mm 0.00 in0.0 mm
01:20 AM 38.7°F3.7°C 34.3°F1.3°C 84% 12.0 mph ENE19.3 kmh ENE 21.0 mph33.8 kmh 30.16 in1021.3 mb 0.00 in0.0 mm 0.00 in0.0 mm 0.00 in0.0 mm
01:25 AM 38.7°F3.7°C 34.3°F1.3°C 84% 13.0 mph ENE20.9 kmh ENE 23.0 mph37.0 kmh 30.16 in1021.3 mb 0.00 in0.0 mm 0.00 in0.0 mm 0.00 in0.0 mm
01:30 AM 38.6°F3.7°C 34.5°F1.4°C 85% 10.0 mph ENE16.1 kmh ENE 18.0 mph29.0 kmh 30.16 in1021.3 mb 0.00 in0.0 mm 0.00 in0.0 mm 0.00 in0.0 mm
01:35 AM 38.6°F3.7°C 34.5°F1.4°C 85% 11.0 mph ENE17.7 kmh ENE 20.0 mph32.2 kmh 30.16 in1021.3 mb 0.00 in0.0 mm 0.00 in0.0 mm 0.00 in0.0 mm
01:40 AM 38.6°F3.7°C 34.5°F1.4°C 85% 13.0 mph ENE20.9 kmh ENE 20.0 mph32.2 kmh 30.16 in1021.3 mb 0.00 in0.0 mm 0.00 in0.0 mm 0.00 in0.0 mm
01:45 AM 38.6°F3.7°C 34.5°F1.4°C 85% 13.0 mph ENE20.9 kmh ENE 21.0 mph33.8 kmh 30.16 in1021.3 mb 0.00 in0.0 mm 0.00 in0.0 mm 0.00 in0.0 mm
01:50 AM 38.5°F3.6°C 34.4°F1.3°C 85% 12.0 mph ENE19.3 kmh ENE 24.0 mph38.6 kmh 30.15 in1021.0 mb 0.00 in0.0 mm 0.00 in0.0 mm 0.00 in0.0 mm
01:55 AM 38.5°F3.6°C 34.4°F1.3°C 85% 11.0 mph ENE17.7 kmh ENE 20.0 mph32.2 kmh 30.15 in1021.0 mb 0.00 in0.0 mm 0.00 in0.0 mm 0.00 in0.0 mm
02:00 AM 38.5°F3.6°C 34.4°F1.3°C 85% 10.0 mph ENE16.1 kmh ENE 18.0 mph29.0 kmh 30.16 in1021.3 mb 0.00 in0.0 mm 0.00 in0.0 mm 0.00 in0.0 mm
02:05 AM 38.5°F3.6°C 34.4°F1.3°C 85% 10.0 mph ENE16.1 kmh ENE 17.0 mph27.4 kmh 30.16 in1021.3 mb 0.00 in0.0 mm 0.00 in0.0 mm 0.00 in0.0 mm
02:10 AM 38.6°F3.7°C 34.5°F1.4°C 85% 13.0 mph ENE20.9 kmh ENE 21.0 mph33.8 kmh 30.15 in1021.0 mb 0.00 in0.0 mm 0.00 in0.0 mm 0.00 in0.0 mm
02:15 AM 38.6°F3.7°C 34.2°F1.2°C 84% 11.0 mph ENE17.7 kmh ENE 20.0 mph32.2 kmh 30.15 in1021.0 mb 0.00 in0.0 mm 0.00 in0.0 mm 0.00 in0.0 mm
02:20 AM 38.7°F3.7°C 34.3°F1.3°C 84% 13.0 mph ENE20.9 kmh ENE 26.0 mph41.8 kmh 30.15 in1021.0 mb 0.00 in0.0 mm 0.00 in0.0 mm 0.00 in0.0 mm
02:25 AM 38.8°F3.8°C 34.4°F1.3°C 84% 11.0 mph E17.7 kmh E 27.0 mph43.5 kmh 30.15 in1021.0 mb 0.00 in0.0 mm 0.00 in0.0 mm 0.00 in0.0 mm
02:30 AM 38.8°F3.8°C 34.1°F1.2°C 83% 13.0 mph ENE20.9 kmh ENE 23.0 mph37.0 kmh 30.15 in1021.0 mb 0.00 in0.0 mm 0.00 in0.0 mm 0.00 in0.0 mm
02:35 AM 38.8°F3.8°C 34.1°F1.2°C 83% 12.0 mph E19.3 kmh E 23.0 mph37.0 kmh 30.15 in1021.0 mb 0.00 in0.0 mm 0.00 in0.0 mm 0.00 in0.0 mm
02:40 AM 38.8°F3.8°C 33.8°F1.0°C 82% 12.0 mph E19.3 kmh E 23.0 mph37.0 kmh 30.15 in1021.0 mb 0.00 in0.0 mm 0.00 in0.0 mm 0.00 in0.0 mm
02:45 AM 38.8°F3.8°C 33.8°F1.0°C 82% 12.0 mph ENE19.3 kmh ENE 17.0 mph27.4 kmh 30.14 in1020.7 mb 0.00 in0.0 mm 0.00 in0.0 mm 0.00 in0.0 mm
02:50 AM 38.8°F3.8°C 33.5°F0.8°C 81% 13.0 mph E20.9 kmh E 24.0 mph38.6 kmh 30.14 in1020.7 mb 0.00 in0.0 mm 0.00 in0.0 mm 0.00 in0.0 mm
02:55 AM 38.9°F3.8°C 33.3°F0.7°C 80% 11.0 mph E17.7 kmh E 24.0 mph38.6 kmh 30.14 in1020.7 mb 0.00 in0.0 mm 0.00 in0.0 mm 0.00 in0.0 mm
03:00 AM 38.9°F3.8°C 33.3°F0.7°C 80% 14.0 mph E22.5 kmh E 26.0 mph41.8 kmh 30.14 in1020.7 mb 0.00 in0.0 mm 0.00 in0.0 mm 0.00 in0.0 mm
03:05 AM 38.9°F3.8°C 33.3°F0.7°C 80% 11.0 mph E17.7 kmh E 17.0 mph27.4 kmh 30.14 in1020.7 mb 0.00 in0.0 mm 0.00 in0.0 mm 0.00 in0.0 mm
03:10 AM 38.9°F3.8°C 33.3°F0.7°C 80% 11.0 mph E17.7 kmh E 23.0 mph37.0 kmh 30.14 in1020.7 mb 0.00 in0.0 mm 0.00 in0.0 mm 0.00 in0.0 mm
03:15 AM 38.9°F3.8°C 33.0°F0.6°C 79% 13.0 mph E20.9 kmh E 25.0 mph40.2 kmh 30.14 in1020.7 mb 0.00 in0.0 mm 0.00 in0.0 mm 0.00 in0.0 mm
03:20 AM 38.9°F3.8°C 33.0°F0.6°C 79% 13.0 mph E20.9 kmh E 27.0 mph43.5 kmh 30.14 in1020.7 mb 0.00 in0.0 mm 0.00 in0.0 mm 0.00 in0.0 mm
03:25 AM 38.9°F3.8°C 33.0°F0.6°C 79% 13.0 mph ENE20.9 kmh ENE 23.0 mph37.0 kmh 30.13 in1020.3 mb 0.00 in0.0 mm 0.00 in0.0 mm 0.00 in0.0 mm
03:30 AM 38.9°F3.8°C 33.0°F0.6°C 79% 12.0 mph E19.3 kmh E 20.0 mph32.2 kmh 30.13 in1020.3 mb 0.00 in0.0 mm 0.00 in0.0 mm 0.00 in0.0 mm
03:35 AM 38.8°F3.8°C 32.9°F0.5°C 79% 13.0 mph ENE20.9 kmh ENE 24.0 mph38.6 kmh 30.13 in1020.3 mb 0.00 in0.0 mm 0.00 in0.0 mm 0.00 in0.0 mm
03:40 AM 38.8°F3.8°C 32.9°F0.5°C 79% 13.0 mph E20.9 kmh E 30.0 mph48.3 kmh 30.13 in1020.3 mb 0.00 in0.0 mm 0.00 in0.0 mm 0.00 in0.0 mm
03:45 AM 38.7°F3.7°C 32.8°F0.4°C 79% 12.0 mph E19.3 kmh E 18.0 mph29.0 kmh 30.13 in1020.3 mb 0.00 in0.0 mm 0.00 in0.0 mm 0.00 in0.0 mm
03:50 AM 38.6°F3.7°C 32.7°F0.4°C 79% 11.0 mph E17.7 kmh E 18.0 mph29.0 kmh 30.13 in1020.3 mb 0.00 in0.0 mm 0.00 in0.0 mm 0.00 in0.0 mm
03:55 AM 38.5°F3.6°C 32.9°F0.5°C 80% 12.0 mph E19.3 kmh E 21.0 mph33.8 kmh 30.13 in1020.3 mb 0.00 in0.0 mm 0.00 in0.0 mm 0.00 in0.0 mm
04:00 AM 38.4°F3.6°C 32.5°F0.3°C 79% 12.0 mph ENE19.3 kmh ENE 21.0 mph33.8 kmh 30.12 in1020.0 mb 0.00 in0.0 mm 0.00 in0.0 mm 0.00 in0.0 mm
04:05 AM 38.3°F3.5°C 32.4°F0.2°C 79% 15.0 mph ENE24.1 kmh ENE 26.0 mph41.8 kmh 30.12 in1020.0 mb 0.00 in0.0 mm 0.00 in0.0 mm 0.00 in0.0 mm
04:10 AM 38.3°F3.5°C 32.4°F0.2°C 79% 14.0 mph ENE22.5 kmh ENE 22.0 mph35.4 kmh 30.12 in1020.0 mb 0.00 in0.0 mm 0.00 in0.0 mm 0.00 in0.0 mm
04:15 AM 38.3°F3.5°C 32.4°F0.2°C 79% 12.0 mph ENE19.3 kmh ENE 22.0 mph35.4 kmh 30.12 in1020.0 mb 0.00 in0.0 mm 0.00 in0.0 mm 0.00 in0.0 mm
04:20 AM 38.1°F3.4°C 32.2°F0.1°C 79% 13.0 mph E20.9 kmh E 23.0 mph37.0 kmh 30.12 in1020.0 mb 0.00 in0.0 mm 0.00 in0.0 mm 0.00 in0.0 mm
04:25 AM 38.0°F3.3°C 32.1°F0.1°C 79% 11.0 mph E17.7 kmh E 23.0 mph37.0 kmh 30.12 in1020.0 mb 0.00 in0.0 mm 0.00 in0.0 mm 0.00 in0.0 mm
04:30 AM 37.9°F3.3°C 32.0°F0.0°C 79% 13.0 mph ENE20.9 kmh ENE 24.0 mph38.6 kmh 30.12 in1020.0 mb 0.00 in0.0 mm 0.00 in0.0 mm 0.00 in0.0 mm
04:35 AM 37.7°F3.2°C 31.8°F-0.1°C 79% 12.0 mph E19.3 kmh E 23.0 mph37.0 kmh 30.12 in1020.0 mb 0.00 in0.0 mm 0.00 in0.0 mm 0.00 in0.0 mm
04:40 AM 37.5°F3.1°C 31.6°F-0.2°C 79% 11.0 mph E17.7 kmh E 19.0 mph30.6 kmh 30.12 in1020.0 mb 0.00 in0.0 mm 0.00 in0.0 mm 0.00 in0.0 mm
04:45 AM 37.5°F3.1°C 31.6°F-0.2°C 79% 10.0 mph E16.1 kmh E 20.0 mph32.2 kmh 30.12 in1020.0 mb 0.00 in0.0 mm 0.00 in0.0 mm 0.00 in0.0 mm
04:50 AM 37.5°F3.1°C 31.6°F-0.2°C 79% 12.0 mph E19.3 kmh E 21.0 mph33.8 kmh 30.12 in1020.0 mb 0.00 in0.0 mm 0.00 in0.0 mm 0.00 in0.0 mm
04:55 AM 37.3°F2.9°C 31.7°F-0.2°C 80% 13.0 mph E20.9 kmh E 21.0 mph33.8 kmh 30.11 in1019.6 mb 0.00 in0.0 mm 0.00 in0.0 mm 0.00 in0.0 mm
05:00 AM 37.2°F2.9°C 31.3°F-0.4°C 79% 13.0 mph E20.9 kmh E 25.0 mph40.2 kmh 30.11 in1019.6 mb 0.00 in0.0 mm 0.00 in0.0 mm 0.00 in0.0 mm
05:05 AM 37.1°F2.8°C 31.2°F-0.4°C 79% 13.0 mph ENE20.9 kmh ENE 24.0 mph38.6 kmh 30.11 in1019.6 mb 0.00 in0.0 mm 0.00 in0.0 mm 0.00 in0.0 mm
05:10 AM 37.0°F2.8°C 31.1°F-0.5°C 79% 12.0 mph E19.3 kmh E 23.0 mph37.0 kmh 30.10 in1019.3 mb 0.00 in0.0 mm 0.00 in0.0 mm 0.00 in0.0 mm
05:15 AM 36.9°F2.7°C 31.0°F-0.6°C 79% 13.0 mph ENE20.9 kmh ENE 23.0 mph37.0 kmh 30.11 in1019.6 mb 0.00 in0.0 mm 0.00 in0.0 mm 0.00 in0.0 mm
05:20 AM 36.8°F2.7°C 30.9°F-0.6°C 79% 14.0 mph E22.5 kmh E 23.0 mph37.0 kmh 30.11 in1019.6 mb 0.00 in0.0 mm 0.00 in0.0 mm 0.00 in0.0 mm
05:25 AM 36.8°F2.7°C 30.9°F-0.6°C 79% 13.0 mph ENE20.9 kmh ENE 21.0 mph33.8 kmh 30.11 in1019.6 mb 0.00 in0.0 mm 0.00 in0.0 mm 0.00 in0.0 mm
05:30 AM 36.7°F2.6°C 31.1°F-0.5°C 80% 15.0 mph ENE24.1 kmh ENE 24.0 mph38.6 kmh 30.10 in1019.3 mb 0.00 in0.0 mm 0.00 in0.0 mm 0.00 in0.0 mm
05:35 AM 36.6°F2.6°C 31.0°F-0.6°C 80% 13.0 mph ENE20.9 kmh ENE 22.0 mph35.4 kmh 30.10 in1019.3 mb 0.00 in0.0 mm 0.00 in0.0 mm 0.00 in0.0 mm
05:40 AM 36.4°F2.4°C 30.8°F-0.7°C 80% 14.0 mph ENE22.5 kmh ENE 25.0 mph40.2 kmh 30.10 in1019.3 mb 0.00 in0.0 mm 0.00 in0.0 mm 0.00 in0.0 mm
05:45 AM 36.4°F2.4°C 30.8°F-0.7°C 80% 14.0 mph E22.5 kmh E 23.0 mph37.0 kmh 30.10 in1019.3 mb 0.00 in0.0 mm 0.00 in0.0 mm 0.00 in0.0 mm
05:50 AM 36.3°F2.4°C 31.0°F-0.6°C 81% 14.0 mph E22.5 kmh E 27.0 mph43.5 kmh 30.10 in1019.3 mb 0.00 in0.0 mm 0.00 in0.0 mm 0.00 in0.0 mm
05:55 AM 36.1°F2.3°C 30.8°F-0.7°C 81% 11.0 mph E17.7 kmh E 18.0 mph29.0 kmh 30.10 in1019.3 mb 0.00 in0.0 mm 0.00 in0.0 mm 0.00 in0.0 mm
06:00 AM 36.1°F2.3°C 30.8°F-0.7°C 81% 12.0 mph E19.3 kmh E 21.0 mph33.8 kmh 30.10 in1019.3 mb 0.00 in0.0 mm 0.00 in0.0 mm 0.00 in0.0 mm
06:05 AM 36.2°F2.3°C 30.9°F-0.6°C 81% 12.0 mph E19.3 kmh E 22.0 mph35.4 kmh 30.11 in1019.6 mb 0.00 in0.0 mm 0.00 in0.0 mm 0.00 in0.0 mm
06:10 AM 36.3°F2.4°C 31.0°F-0.6°C 81% 12.0 mph E19.3 kmh E 28.0 mph45.1 kmh 30.10 in1019.3 mb 0.00 in0.0 mm 0.00 in0.0 mm 0.00 in0.0 mm
06:15 AM 36.5°F2.5°C 31.2°F-0.4°C 81% 13.0 mph E20.9 kmh E 22.0 mph35.4 kmh 30.10 in1019.3 mb 0.00 in0.0 mm 0.00 in0.0 mm 0.00 in0.0 mm
06:20 AM 36.5°F2.5°C 31.2°F-0.4°C 81% 8.0 mph E12.9 kmh E 14.0 mph22.5 kmh 30.10 in1019.3 mb 0.00 in0.0 mm 0.00 in0.0 mm 0.00 in0.0 mm
06:25 AM 36.5°F2.5°C 31.2°F-0.4°C 81% 11.0 mph E17.7 kmh E 20.0 mph32.2 kmh 30.10 in1019.3 mb 0.00 in0.0 mm 0.00 in0.0 mm 0.00 in0.0 mm
06:30 AM 36.6°F2.6°C 31.3°F-0.4°C 81% 10.0 mph E16.1 kmh E 16.0 mph25.7 kmh 30.10 in1019.3 mb 0.00 in0.0 mm 0.00 in0.0 mm 0.00 in0.0 mm
06:35 AM 36.6°F2.6°C 31.3°F-0.4°C 81% 11.0 mph E17.7 kmh E 23.0 mph37.0 kmh 30.10 in1019.3 mb 0.00 in0.0 mm 0.00 in0.0 mm 0.00 in0.0 mm
06:40 AM 36.7°F2.6°C 31.4°F-0.3°C 81% 13.0 mph E20.9 kmh E 20.0 mph32.2 kmh 30.11 in1019.6 mb 0.00 in0.0 mm 0.00 in0.0 mm 0.00 in0.0 mm
06:45 AM 36.8°F2.7°C 31.2°F-0.4°C 80% 13.0 mph E20.9 kmh E 25.0 mph40.2 kmh 30.11 in1019.6 mb 0.00 in0.0 mm 0.00 in0.0 mm 0.00 in0.0 mm
06:50 AM 36.8°F2.7°C 31.2°F-0.4°C 80% 12.0 mph E19.3 kmh E 20.0 mph32.2 kmh 30.11 in1019.6 mb 0.00 in0.0 mm 0.00 in0.0 mm 0.00 in0.0 mm
06:55 AM 36.8°F2.7°C 31.2°F-0.4°C 80% 13.0 mph E20.9 kmh E 22.0 mph35.4 kmh 30.11 in1019.6 mb 0.00 in0.0 mm 0.00 in0.0 mm 0.00 in0.0 mm
07:00 AM 36.9°F2.7°C 31.3°F-0.4°C 80% 11.0 mph E17.7 kmh E 18.0 mph29.0 kmh 30.11 in1019.6 mb 0.00 in0.0 mm 0.00 in0.0 mm 0.00 in0.0 mm
07:05 AM 36.9°F2.7°C 31.3°F-0.4°C 80% 14.0 mph E22.5 kmh E 26.0 mph41.8 kmh 30.11 in1019.6 mb 0.00 in0.0 mm 0.00 in0.0 mm 0.00 in0.0 mm
07:10 AM 36.9°F2.7°C 31.3°F-0.4°C 80% 13.0 mph E20.9 kmh E 20.0 mph32.2 kmh 30.11 in1019.6 mb 0.00 in0.0 mm 0.00 in0.0 mm 0.00 in0.0 mm
07:15 AM 36.8°F2.7°C 31.2°F-0.4°C 80% 13.0 mph E20.9 kmh E 22.0 mph35.4 kmh 30.11 in1019.6 mb 0.00 in0.0 mm 0.00 in0.0 mm 0.00 in0.0 mm
07:20 AM 36.9°F2.7°C 31.3°F-0.4°C 80% 12.0 mph E19.3 kmh E 26.0 mph41.8 kmh 30.11 in1019.6 mb 0.00 in0.0 mm 0.00 in0.0 mm 0.00 in0.0 mm
07:25 AM 37.0°F2.8°C 31.1°F-0.5°C 79% 13.0 mph E20.9 kmh E 23.0 mph37.0 kmh 30.11 in1019.6 mb 0.00 in0.0 mm 0.00 in0.0 mm 0.00 in0.0 mm
07:30 AM 37.0°F2.8°C 31.1°F-0.5°C 79% 14.0 mph E22.5 kmh E 23.0 mph37.0 kmh 30.11 in1019.6 mb 0.00 in0.0 mm 0.00 in0.0 mm 0.00 in0.0 mm
07:35 AM 37.0°F2.8°C 31.1°F-0.5°C 79% 11.0 mph E17.7 kmh E 21.0 mph33.8 kmh 30.11 in1019.6 mb 0.00 in0.0 mm 0.00 in0.0 mm 0.00 in0.0 mm
07:40 AM 37.0°F2.8°C 31.4°F-0.3°C 80% 12.0 mph E19.3 kmh E 22.0 mph35.4 kmh 30.11 in1019.6 mb 0.00 in0.0 mm 0.00 in0.0 mm 0.00 in0.0 mm
07:45 AM 37.1°F2.8°C 31.5°F-0.3°C 80% 11.0 mph ENE17.7 kmh ENE 21.0 mph33.8 kmh 30.11 in1019.6 mb 0.00 in0.0 mm 0.00 in0.0 mm 0.00 in0.0 mm
07:50 AM 37.1°F2.8°C 31.8°F-0.1°C 81% 10.0 mph E16.1 kmh E 20.0 mph32.2 kmh 30.11 in1019.6 mb 0.00 in0.0 mm 0.00 in0.0 mm 0.00 in0.0 mm
07:55 AM 37.0°F2.8°C 31.7°F-0.2°C 81% 11.0 mph E17.7 kmh E 22.0 mph35.4 kmh 30.11 in1019.6 mb 0.00 in0.0 mm 0.00 in0.0 mm 0.00 in0.0 mm
08:00 AM 37.1°F2.8°C 31.8°F-0.1°C 81% 10.0 mph E16.1 kmh E 18.0 mph29.0 kmh 30.11 in1019.6 mb 0.00 in0.0 mm 0.00 in0.0 mm 0.00 in0.0 mm
08:05 AM 37.1°F2.8°C 31.8°F-0.1°C 81% 11.0 mph E17.7 kmh E 18.0 mph29.0 kmh 30.11 in1019.6 mb 0.00 in0.0 mm 0.00 in0.0 mm 0.00 in0.0 mm
08:10 AM 37.1°F2.8°C 31.8°F-0.1°C 81% 10.0 mph E16.1 kmh E 19.0 mph30.6 kmh 30.11 in1019.6 mb 0.00 in0.0 mm 0.00 in0.0 mm 0.00 in0.0 mm
08:15 AM 37.2°F2.9°C 31.9°F-0.1°C 81% 13.0 mph E20.9 kmh E 25.0 mph40.2 kmh 30.11 in1019.6 mb 0.00 in0.0 mm 0.00 in0.0 mm 0.00 in0.0 mm
08:20 AM 37.2°F2.9°C 31.9°F-0.1°C 81% 10.0 mph ENE16.1 kmh ENE 15.0 mph24.1 kmh 30.11 in1019.6 mb 0.00 in0.0 mm 0.00 in0.0 mm 0.00 in0.0 mm
08:25 AM 37.2°F2.9°C 31.9°F-0.1°C 81% 12.0 mph E19.3 kmh E 21.0 mph33.8 kmh 30.11 in1019.6 mb 0.00 in0.0 mm 0.00 in0.0 mm 0.00 in0.0 mm
08:30 AM 37.3°F2.9°C 31.7°F-0.2°C 80% 10.0 mph E16.1 kmh E 19.0 mph30.6 kmh 30.11 in1019.6 mb 0.00 in0.0 mm 0.00 in0.0 mm 0.00 in0.0 mm
08:35 AM 37.3°F2.9°C 31.7°F-0.2°C 80% 11.0 mph E17.7 kmh E 18.0 mph29.0 kmh 30.11 in1019.6 mb 0.00 in0.0 mm 0.00 in0.0 mm 0.00 in0.0 mm
08:40 AM 37.3°F2.9°C 31.7°F-0.2°C 80% 13.0 mph E20.9 kmh E 25.0 mph40.2 kmh 30.11 in1019.6 mb 0.00 in0.0 mm 0.00 in0.0 mm 0.00 in0.0 mm
08:45 AM 37.3°F2.9°C 31.4°F-0.3°C 79% 12.0 mph E19.3 kmh E 19.0 mph30.6 kmh 30.11 in1019.6 mb 0.00 in0.0 mm 0.00 in0.0 mm 0.00 in0.0 mm
08:50 AM 37.3°F2.9°C 31.4°F-0.3°C 79% 9.0 mph E14.5 kmh E 17.0 mph27.4 kmh 30.11 in1019.6 mb 0.00 in0.0 mm 0.00 in0.0 mm 0.00 in0.0 mm
08:55 AM 37.4°F3.0°C 31.5°F-0.3°C 79% 12.0 mph ENE19.3 kmh ENE 21.0 mph33.8 kmh 30.11 in1019.6 mb 0.00 in0.0 mm 0.00 in0.0 mm 0.00 in0.0 mm
09:00 AM 37.4°F3.0°C 31.5°F-0.3°C 79% 10.0 mph E16.1 kmh E 23.0 mph37.0 kmh 30.11 in1019.6 mb 0.00 in0.0 mm 0.00 in0.0 mm 0.00 in0.0 mm
09:05 AM 37.4°F3.0°C 31.8°F-0.1°C 80% 10.0 mph E16.1 kmh E 16.0 mph25.7 kmh 30.11 in1019.6 mb 0.00 in0.0 mm 0.00 in0.0 mm 0.00 in0.0 mm
09:10 AM 37.4°F3.0°C 31.5°F-0.3°C 79% 11.0 mph E17.7 kmh E 22.0 mph35.4 kmh 30.10 in1019.3 mb 0.00 in0.0 mm 0.00 in0.0 mm 0.00 in0.0 mm
09:15 AM 37.3°F2.9°C 31.7°F-0.2°C 80% 12.0 mph E19.3 kmh E 19.0 mph30.6 kmh 30.10 in1019.3 mb 0.00 in0.0 mm 0.00 in0.0 mm 0.00 in0.0 mm
09:20 AM 37.4°F3.0°C 31.5°F-0.3°C 79% 11.0 mph ENE17.7 kmh ENE 19.0 mph30.6 kmh 30.10 in1019.3 mb 0.00 in0.0 mm 0.00 in0.0 mm 0.00 in0.0 mm
09:25 AM 37.4°F3.0°C 31.5°F-0.3°C 79% 11.0 mph E17.7 kmh E 21.0 mph33.8 kmh 30.10 in1019.3 mb 0.00 in0.0 mm 0.00 in0.0 mm 0.00 in0.0 mm
09:30 AM 37.4°F3.0°C 31.5°F-0.3°C 79% 13.0 mph E20.9 kmh E 24.0 mph38.6 kmh 30.10 in1019.3 mb 0.00 in0.0 mm 0.00 in0.0 mm 0.00 in0.0 mm
09:35 AM 37.4°F3.0°C 31.5°F-0.3°C 79% 14.0 mph E22.5 kmh E 23.0 mph37.0 kmh 30.10 in1019.3 mb 0.00 in0.0 mm 0.00 in0.0 mm 0.00 in0.0 mm
09:40 AM 37.5°F3.1°C 31.6°F-0.2°C 79% 11.0 mph E17.7 kmh E 19.0 mph30.6 kmh 30.10 in1019.3 mb 0.00 in0.0 mm 0.00 in0.0 mm 0.00 in0.0 mm
09:45 AM 37.5°F3.1°C 31.6°F-0.2°C 79% 12.0 mph E19.3 kmh E 20.0 mph32.2 kmh 30.10 in1019.3 mb 0.00 in0.0 mm 0.00 in0.0 mm 0.00 in0.0 mm
09:50 AM 37.5°F3.1°C 31.6°F-0.2°C 79% 11.0 mph E17.7 kmh E 23.0 mph37.0 kmh 30.09 in1019.0 mb 0.00 in0.0 mm 0.00 in0.0 mm 0.00 in0.0 mm
09:55 AM 37.6°F3.1°C 31.7°F-0.2°C 79% 12.0 mph E19.3 kmh E 19.0 mph30.6 kmh 30.09 in1019.0 mb 0.00 in0.0 mm 0.00 in0.0 mm 0.00 in0.0 mm
10:00 AM 37.6°F3.1°C 31.7°F-0.2°C 79% 10.0 mph E16.1 kmh E 16.0 mph25.7 kmh 30.09 in1019.0 mb 0.00 in0.0 mm 0.00 in0.0 mm 0.00 in0.0 mm
10:05 AM 37.6°F3.1°C 31.7°F-0.2°C 79% 11.0 mph E17.7 kmh E 17.0 mph27.4 kmh 30.10 in1019.3 mb 0.00 in0.0 mm 0.00 in0.0 mm 0.00 in0.0 mm
10:10 AM 37.6°F3.1°C 32.0°F0.0°C 80% 9.0 mph ENE14.5 kmh ENE 16.0 mph25.7 kmh 30.09 in1019.0 mb 0.00 in0.0 mm 0.00 in0.0 mm 0.00 in0.0 mm
10:15 AM 37.5°F3.1°C 31.9°F-0.1°C 80% 11.0 mph E17.7 kmh E 19.0 mph30.6 kmh 30.09 in1019.0 mb 0.00 in0.0 mm 0.00 in0.0 mm 0.00 in0.0 mm
10:20 AM 37.6°F3.1°C 31.7°F-0.2°C 79% 12.0 mph ENE19.3 kmh ENE 18.0 mph29.0 kmh 30.09 in1019.0 mb 0.00 in0.0 mm 0.00 in0.0 mm 0.00 in0.0 mm
10:25 AM 37.6°F3.1°C 32.0°F0.0°C 80% 12.0 mph ENE19.3 kmh ENE 22.0 mph35.4 kmh 30.09 in1019.0 mb 0.00 in0.0 mm 0.00 in0.0 mm 0.00 in0.0 mm
10:30 AM 37.6°F3.1°C 32.0°F0.0°C 80% 11.0 mph E17.7 kmh E 21.0 mph33.8 kmh 30.08 in1018.6 mb 0.00 in0.0 mm 0.00 in0.0 mm 0.00 in0.0 mm
10:35 AM 37.6°F3.1°C 32.0°F0.0°C 80% 12.0 mph E19.3 kmh E 22.0 mph35.4 kmh 30.08 in1018.6 mb 0.00 in0.0 mm 0.00 in0.0 mm 0.00 in0.0 mm
10:40 AM 37.6°F3.1°C 32.0°F0.0°C 80% 12.0 mph ENE19.3 kmh ENE 19.0 mph30.6 kmh 30.08 in1018.6 mb 0.00 in0.0 mm 0.00 in0.0 mm 0.00 in0.0 mm
10:45 AM 37.6°F3.1°C 32.0°F0.0°C 80% 11.0 mph ENE17.7 kmh ENE 19.0 mph30.6 kmh 30.08 in1018.6 mb 0.00 in0.0 mm 0.00 in0.0 mm 0.00 in0.0 mm
10:50 AM 37.7°F3.2°C 32.1°F0.1°C 80% 11.0 mph ENE17.7 kmh ENE 19.0 mph30.6 kmh 30.08 in1018.6 mb 0.00 in0.0 mm 0.00 in0.0 mm 0.00 in0.0 mm
10:55 AM 37.7°F3.2°C 32.1°F0.1°C 80% 11.0 mph E17.7 kmh E 18.0 mph29.0 kmh 30.08 in1018.6 mb 0.00 in0.0 mm 0.00 in0.0 mm 0.00 in0.0 mm
11:00 AM 37.7°F3.2°C 32.1°F0.1°C 80% 11.0 mph E17.7 kmh E 17.0 mph27.4 kmh 30.08 in1018.6 mb 0.00 in0.0 mm 0.00 in0.0 mm 0.00 in0.0 mm
11:05 AM 37.6°F3.1°C 32.0°F0.0°C 80% 12.0 mph E19.3 kmh E 20.0 mph32.2 kmh 30.08 in1018.6 mb 0.00 in0.0 mm 0.00 in0.0 mm 0.00 in0.0 mm
11:10 AM 37.6°F3.1°C 32.0°F0.0°C 80% 13.0 mph ENE20.9 kmh ENE 21.0 mph33.8 kmh 30.07 in1018.3 mb 0.00 in0.0 mm 0.00 in0.0 mm 0.00 in0.0 mm
11:15 AM 37.6°F3.1°C 32.0°F0.0°C 80% 12.0 mph ENE19.3 kmh ENE 23.0 mph37.0 kmh 30.08 in1018.6 mb 0.00 in0.0 mm 0.00 in0.0 mm 0.00 in0.0 mm
11:20 AM 37.7°F3.2°C 32.1°F0.1°C 80% 11.0 mph E17.7 kmh E 17.0 mph27.4 kmh 30.07 in1018.3 mb 0.00 in0.0 mm 0.00 in0.0 mm 0.00 in0.0 mm
11:25 AM 37.8°F3.2°C 32.2°F0.1°C 80% 12.0 mph E19.3 kmh E 22.0 mph35.4 kmh 30.07 in1018.3 mb 0.00 in0.0 mm 0.00 in0.0 mm 0.00 in0.0 mm
11:30 AM 37.8°F3.2°C 32.2°F0.1°C 80% 13.0 mph E20.9 kmh E 20.0 mph32.2 kmh 30.07 in1018.3 mb 0.00 in0.0 mm 0.00 in0.0 mm 0.00 in0.0 mm
11:35 AM 37.8°F3.2°C 32.2°F0.1°C 80% 11.0 mph E17.7 kmh E 19.0 mph30.6 kmh 30.07 in1018.3 mb 0.00 in0.0 mm 0.00 in0.0 mm 0.00 in0.0 mm
11:40 AM 37.8°F3.2°C 32.2°F0.1°C 80% 12.0 mph E19.3 kmh E 21.0 mph33.8 kmh 30.07 in1018.3 mb 0.00 in0.0 mm 0.00 in0.0 mm 0.00 in0.0 mm
11:45 AM 37.7°F3.2°C 32.1°F0.1°C 80% 11.0 mph ENE17.7 kmh ENE 21.0 mph33.8 kmh 30.07 in1018.3 mb 0.00 in0.0 mm 0.00 in0.0 mm 0.00 in0.0 mm
11:50 AM 37.7°F3.2°C 32.4°F0.2°C 81% 9.0 mph E14.5 kmh E 17.0 mph27.4 kmh 30.07 in1018.3 mb 0.00 in0.0 mm 0.00 in0.0 mm 0.00 in0.0 mm
11:55 AM 37.7°F3.2°C 32.4°F0.2°C 81% 13.0 mph E20.9 kmh E 23.0 mph37.0 kmh 30.07 in1018.3 mb 0.00 in0.0 mm 0.00 in0.0 mm 0.00 in0.0 mm
12:00 PM 37.6°F3.1°C 32.3°F0.2°C 81% 14.0 mph E22.5 kmh E 25.0 mph40.2 kmh 30.06 in1017.9 mb 0.00 in0.0 mm 0.00 in0.0 mm 0.00 in0.0 mm
12:05 PM 37.5°F3.1°C 32.5°F0.3°C 82% 13.0 mph ENE20.9 kmh ENE 24.0 mph38.6 kmh 30.06 in1017.9 mb 0.00 in0.0 mm 0.00 in0.0 mm 0.00 in0.0 mm
12:10 PM 37.4°F3.0°C 32.7°F0.4°C 83% 11.0 mph E17.7 kmh E 20.0 mph32.2 kmh 30.05 in1017.6 mb 0.00 in0.0 mm 0.00 in0.0 mm 0.00 in0.0 mm
12:15 PM 37.3°F2.9°C 32.9°F0.5°C 84% 11.0 mph ENE17.7 kmh ENE 23.0 mph37.0 kmh 30.06 in1017.9 mb 0.00 in0.0 mm 0.00 in0.0 mm 0.00 in0.0 mm
12:20 PM 37.1°F2.8°C 32.7°F0.4°C 84% 11.0 mph E17.7 kmh E 19.0 mph30.6 kmh 30.05 in1017.6 mb 0.00 in0.0 mm 0.00 in0.0 mm 0.00 in0.0 mm
12:25 PM 37.1°F2.8°C 32.7°F0.4°C 84% 12.0 mph E19.3 kmh E 24.0 mph38.6 kmh 30.05 in1017.6 mb 0.00 in0.0 mm 0.00 in0.0 mm 0.00 in0.0 mm
12:30 PM 37.0°F2.8°C 32.6°F0.3°C 84% 15.0 mph ENE24.1 kmh ENE 25.0 mph40.2 kmh 30.05 in1017.6 mb 0.00 in0.0 mm 0.00 in0.0 mm 0.00 in0.0 mm
12:35 PM 37.0°F2.8°C 32.9°F0.5°C 85% 12.0 mph E19.3 kmh E 20.0 mph32.2 kmh 30.05 in1017.6 mb 0.00 in0.0 mm 0.00 in0.0 mm 0.00 in0.0 mm
12:40 PM 37.0°F2.8°C 32.9°F0.5°C 85% 9.0 mph E14.5 kmh E 15.0 mph24.1 kmh 30.05 in1017.6 mb 0.00 in0.0 mm 0.00 in0.0 mm 0.00 in0.0 mm
12:45 PM 37.0°F2.8°C 32.9°F0.5°C 85% 11.0 mph E17.7 kmh E 18.0 mph29.0 kmh 30.04 in1017.3 mb 0.00 in0.0 mm 0.00 in0.0 mm 0.00 in0.0 mm
12:50 PM 37.0°F2.8°C 32.9°F0.5°C 85% 11.0 mph ENE17.7 kmh ENE 17.0 mph27.4 kmh 30.05 in1017.6 mb 0.00 in0.0 mm 0.00 in0.0 mm 0.00 in0.0 mm
12:55 PM 37.1°F2.8°C 33.0°F0.6°C 85% 8.0 mph E12.9 kmh E 13.0 mph20.9 kmh 30.04 in1017.3 mb 0.00 in0.0 mm 0.00 in0.0 mm 0.00 in0.0 mm
01:00 PM 37.1°F2.8°C 33.0°F0.6°C 85% 10.0 mph E16.1 kmh E 15.0 mph24.1 kmh 30.04 in1017.3 mb 0.00 in0.0 mm 0.00 in0.0 mm 0.00 in0.0 mm
01:05 PM 37.2°F2.9°C 33.1°F0.6°C 85% 8.0 mph E12.9 kmh E 15.0 mph24.1 kmh 30.04 in1017.3 mb 0.00 in0.0 mm 0.00 in0.0 mm 0.00 in0.0 mm
01:10 PM 37.0°F2.8°C 32.9°F0.5°C 85% 13.0 mph E20.9 kmh E 20.0 mph32.2 kmh 30.04 in1017.3 mb 0.00 in0.0 mm 0.00 in0.0 mm 0.00 in0.0 mm
01:15 PM 36.5°F2.5°C 32.7°F0.4°C 86% 10.0 mph E16.1 kmh E 16.0 mph25.7 kmh 30.05 in1017.6 mb 0.00 in0.0 mm 0.00 in0.0 mm 0.00 in0.0 mm
01:20 PM 36.1°F2.3°C 32.6°F0.3°C 87% 11.0 mph E17.7 kmh E 20.0 mph32.2 kmh 30.04 in1017.3 mb 0.00 in0.0 mm 0.00 in0.0 mm 0.00 in0.0 mm
01:25 PM 35.9°F2.2°C 32.7°F0.4°C 88% 10.0 mph E16.1 kmh E 15.0 mph24.1 kmh 30.04 in1017.3 mb 0.01 in0.3 mm 0.12 in3.0 mm 0.01 in0.3 mm
01:30 PM 35.9°F2.2°C 32.7°F0.4°C 88% 10.0 mph E16.1 kmh E 17.0 mph27.4 kmh 30.04 in1017.3 mb 0.01 in0.3 mm 0.00 in0.0 mm 0.01 in0.3 mm
01:35 PM 35.9°F2.2°C 32.7°F0.4°C 88% 10.0 mph E16.1 kmh E 15.0 mph24.1 kmh 30.04 in1017.3 mb 0.01 in0.3 mm 0.00 in0.0 mm 0.01 in0.3 mm
01:40 PM 36.1°F2.3°C 32.9°F0.5°C 88% 10.0 mph E16.1 kmh E 20.0 mph32.2 kmh 30.04 in1017.3 mb 0.01 in0.3 mm 0.00 in0.0 mm 0.01 in0.3 mm
01:45 PM 36.2°F2.3°C 32.7°F0.4°C 87% 10.0 mph E16.1 kmh E 15.0 mph24.1 kmh 30.04 in1017.3 mb 0.01 in0.3 mm 0.00 in0.0 mm 0.01 in0.3 mm
01:50 PM 36.3°F2.4°C 32.8°F0.4°C 87% 8.0 mph E12.9 kmh E 13.0 mph20.9 kmh 30.03 in1016.9 mb 0.01 in0.3 mm 0.00 in0.0 mm 0.01 in0.3 mm
01:55 PM 36.4°F2.4°C 32.6°F0.3°C 86% 10.0 mph E16.1 kmh E 19.0 mph30.6 kmh 30.03 in1016.9 mb 0.01 in0.3 mm 0.00 in0.0 mm 0.01 in0.3 mm
02:00 PM 36.5°F2.5°C 32.7°F0.4°C 86% 9.0 mph E14.5 kmh E 17.0 mph27.4 kmh 30.03 in1016.9 mb 0.01 in0.3 mm 0.00 in0.0 mm 0.01 in0.3 mm
02:05 PM 36.6°F2.6°C 32.5°F0.3°C 85% 9.0 mph E14.5 kmh E 15.0 mph24.1 kmh 30.03 in1016.9 mb 0.01 in0.3 mm 0.00 in0.0 mm 0.01 in0.3 mm
02:10 PM 36.8°F2.7°C 32.4°F0.2°C 84% 11.0 mph E17.7 kmh E 18.0 mph29.0 kmh 30.02 in1016.6 mb 0.01 in0.3 mm 0.00 in0.0 mm 0.01 in0.3 mm
02:15 PM 36.9°F2.7°C 32.5°F0.3°C 84% 12.0 mph E19.3 kmh E 22.0 mph35.4 kmh 30.02 in1016.6 mb 0.01 in0.3 mm 0.00 in0.0 mm 0.01 in0.3 mm
02:20 PM 36.9°F2.7°C 32.2°F0.1°C 83% 12.0 mph E19.3 kmh E 22.0 mph35.4 kmh 30.02 in1016.6 mb 0.01 in0.3 mm 0.00 in0.0 mm 0.01 in0.3 mm
02:25 PM 37.0°F2.8°C 32.0°F0.0°C 82% 12.0 mph E19.3 kmh E 20.0 mph32.2 kmh 30.03 in1016.9 mb 0.00 in0.0 mm 0.00 in0.0 mm 0.01 in0.3 mm
02:30 PM 37.0°F2.8°C 32.3°F0.2°C 83% 9.0 mph ESE14.5 kmh ESE 15.0 mph24.1 kmh 30.03 in1016.9 mb 0.00 in0.0 mm 0.00 in0.0 mm 0.01 in0.3 mm
02:35 PM 37.0°F2.8°C 32.0°F0.0°C 82% 8.0 mph ESE12.9 kmh ESE 14.0 mph22.5 kmh 30.02 in1016.6 mb 0.00 in0.0 mm 0.00 in0.0 mm 0.01 in0.3 mm
02:40 PM 37.0°F2.8°C 32.0°F0.0°C 82% 10.0 mph E16.1 kmh E 18.0 mph29.0 kmh 30.02 in1016.6 mb 0.00 in0.0 mm 0.00 in0.0 mm 0.01 in0.3 mm
02:45 PM 37.1°F2.8°C 32.1°F0.1°C 82% 10.0 mph E16.1 kmh E 16.0 mph25.7 kmh 30.02 in1016.6 mb 0.00 in0.0 mm 0.00 in0.0 mm 0.01 in0.3 mm
02:50 PM 37.1°F2.8°C 32.1°F0.1°C 82% 10.0 mph E16.1 kmh E 20.0 mph32.2 kmh 30.02 in1016.6 mb 0.00 in0.0 mm 0.00 in0.0 mm 0.01 in0.3 mm
02:55 PM 37.2°F2.9°C 32.2°F0.1°C 82% 13.0 mph E20.9 kmh E 24.0 mph38.6 kmh 30.02 in1016.6 mb 0.00 in0.0 mm 0.00 in0.0 mm 0.01 in0.3 mm
03:00 PM 37.2°F2.9°C 32.2°F0.1°C 82% 11.0 mph E17.7 kmh E 18.0 mph29.0 kmh 30.02 in1016.6 mb 0.00 in0.0 mm 0.00 in0.0 mm 0.01 in0.3 mm
03:05 PM 37.2°F2.9°C 31.9°F-0.1°C 81% 13.0 mph E20.9 kmh E 24.0 mph38.6 kmh 30.02 in1016.6 mb 0.00 in0.0 mm 0.00 in0.0 mm 0.01 in0.3 mm
03:10 PM 37.2°F2.9°C 31.9°F-0.1°C 81% 10.0 mph E16.1 kmh E 16.0 mph25.7 kmh 30.02 in1016.6 mb 0.00 in0.0 mm 0.00 in0.0 mm 0.01 in0.3 mm
03:15 PM 37.2°F2.9°C 31.9°F-0.1°C 81% 13.0 mph E20.9 kmh E 26.0 mph41.8 kmh 30.02 in1016.6 mb 0.00 in0.0 mm 0.00 in0.0 mm 0.01 in0.3 mm
03:20 PM 37.2°F2.9°C 31.9°F-0.1°C 81% 13.0 mph E20.9 kmh E 20.0 mph32.2 kmh 30.01 in1016.3 mb 0.00 in0.0 mm 0.00 in0.0 mm 0.01 in0.3 mm
03:25 PM 37.1°F2.8°C 31.8°F-0.1°C 81% 12.0 mph E19.3 kmh E 23.0 mph37.0 kmh 30.01 in1016.3 mb 0.00 in0.0 mm 0.00 in0.0 mm 0.01 in0.3 mm
03:30 PM 37.1°F2.8°C 31.8°F-0.1°C 81% 11.0 mph E17.7 kmh E 20.0 mph32.2 kmh 30.00 in1015.9 mb 0.00 in0.0 mm 0.00 in0.0 mm 0.01 in0.3 mm
03:35 PM 37.0°F2.8°C 31.4°F-0.3°C 80% 12.0 mph E19.3 kmh E 18.0 mph29.0 kmh 30.00 in1015.9 mb 0.00 in0.0 mm 0.00 in0.0 mm 0.01 in0.3 mm
03:40 PM 37.1°F2.8°C 31.8°F-0.1°C 81% 9.0 mph E14.5 kmh E 15.0 mph24.1 kmh 30.00 in1015.9 mb 0.00 in0.0 mm 0.00 in0.0 mm 0.01 in0.3 mm
03:45 PM 37.0°F2.8°C 31.4°F-0.3°C 80% 12.0 mph E19.3 kmh E 19.0 mph30.6 kmh 30.00 in1015.9 mb 0.00 in0.0 mm 0.00 in0.0 mm 0.01 in0.3 mm
03:50 PM 37.0°F2.8°C 31.4°F-0.3°C 80% 10.0 mph E16.1 kmh E 17.0 mph27.4 kmh 30.00 in1015.9 mb 0.00 in0.0 mm 0.00 in0.0 mm 0.01 in0.3 mm
03:55 PM 37.0°F2.8°C 31.4°F-0.3°C 80% 10.0 mph E16.1 kmh E 17.0 mph27.4 kmh 30.00 in1015.9 mb 0.00 in0.0 mm 0.00 in0.0 mm 0.01 in0.3 mm
04:00 PM 37.0°F2.8°C 31.4°F-0.3°C 80% 10.0 mph E16.1 kmh E 20.0 mph32.2 kmh 30.00 in1015.9 mb 0.00 in0.0 mm 0.00 in0.0 mm 0.01 in0.3 mm
04:05 PM 37.1°F2.8°C 31.5°F-0.3°C 80% 11.0 mph E17.7 kmh E 18.0 mph29.0 kmh 30.00 in1015.9 mb 0.00 in0.0 mm 0.00 in0.0 mm 0.01 in0.3 mm
04:10 PM 37.1°F2.8°C 31.5°F-0.3°C 80% 11.0 mph E17.7 kmh E 17.0 mph27.4 kmh 29.99 in1015.6 mb 0.00 in0.0 mm 0.00 in0.0 mm 0.01 in0.3 mm
04:15 PM 37.2°F2.9°C 31.6°F-0.2°C 80% 11.0 mph E17.7 kmh E 18.0 mph29.0 kmh 29.99 in1015.6 mb 0.00 in0.0 mm 0.00 in0.0 mm 0.01 in0.3 mm
04:20 PM 37.1°F2.8°C 31.8°F-0.1°C 81% 9.0 mph ENE14.5 kmh ENE 18.0 mph29.0 kmh 29.99 in1015.6 mb 0.00 in0.0 mm 0.00 in0.0 mm 0.01 in0.3 mm
04:25 PM 37.1°F2.8°C 32.1°F0.1°C 82% 9.0 mph ENE14.5 kmh ENE 17.0 mph27.4 kmh 29.99 in1015.6 mb 0.00 in0.0 mm 0.00 in0.0 mm 0.01 in0.3 mm
04:30 PM 37.1°F2.8°C 32.1°F0.1°C 82% 10.0 mph E16.1 kmh E 16.0 mph25.7 kmh 29.99 in1015.6 mb 0.00 in0.0 mm 0.00 in0.0 mm 0.01 in0.3 mm
04:35 PM 37.0°F2.8°C 31.7°F-0.2°C 81% 12.0 mph E19.3 kmh E 20.0 mph32.2 kmh 29.99 in1015.6 mb 0.00 in0.0 mm 0.00 in0.0 mm 0.01 in0.3 mm
04:40 PM 36.9°F2.7°C 31.6°F-0.2°C 81% 13.0 mph E20.9 kmh E 22.0 mph35.4 kmh 29.99 in1015.6 mb 0.00 in0.0 mm 0.00 in0.0 mm 0.01 in0.3 mm
04:45 PM 36.9°F2.7°C 31.6°F-0.2°C 81% 14.0 mph E22.5 kmh E 23.0 mph37.0 kmh 29.99 in1015.6 mb 0.00 in0.0 mm 0.00 in0.0 mm 0.01 in0.3 mm
04:50 PM 36.8°F2.7°C 31.5°F-0.3°C 81% 14.0 mph E22.5 kmh E 23.0 mph37.0 kmh 29.99 in1015.6 mb 0.00 in0.0 mm 0.00 in0.0 mm 0.01 in0.3 mm
04:55 PM 36.8°F2.7°C 31.5°F-0.3°C 81% 14.0 mph E22.5 kmh E 23.0 mph37.0 kmh 30.00 in1015.9 mb 0.00 in0.0 mm 0.00 in0.0 mm 0.01 in0.3 mm
05:00 PM 36.8°F2.7°C 31.2°F-0.4°C 80% 15.0 mph E24.1 kmh E 27.0 mph43.5 kmh 30.00 in1015.9 mb 0.00 in0.0 mm 0.00 in0.0 mm 0.01 in0.3 mm
05:05 PM 36.8°F2.7°C 31.5°F-0.3°C 81% 13.0 mph E20.9 kmh E 24.0 mph38.6 kmh 30.00 in1015.9 mb 0.00 in0.0 mm 0.00 in0.0 mm 0.01 in0.3 mm
05:10 PM 36.7°F2.6°C 31.1°F-0.5°C 80% 12.0 mph E19.3 kmh E 23.0 mph37.0 kmh 30.00 in1015.9 mb 0.00 in0.0 mm 0.00 in0.0 mm 0.01 in0.3 mm
05:15 PM 36.7°F2.6°C 31.1°F-0.5°C 80% 12.0 mph E19.3 kmh E 19.0 mph30.6 kmh 30.00 in1015.9 mb 0.00 in0.0 mm 0.00 in0.0 mm 0.01 in0.3 mm
05:20 PM 36.7°F2.6°C 31.4°F-0.3°C 81% 11.0 mph E17.7 kmh E 19.0 mph30.6 kmh 30.00 in1015.9 mb 0.00 in0.0 mm 0.00 in0.0 mm 0.01 in0.3 mm
05:25 PM 36.8°F2.7°C 31.2°F-0.4°C 80% 10.0 mph E16.1 kmh E 21.0 mph33.8 kmh 30.00 in1015.9 mb 0.00 in0.0 mm 0.00 in0.0 mm 0.01 in0.3 mm
05:30 PM 36.7°F2.6°C 31.1°F-0.5°C 80% 11.0 mph E17.7 kmh E 22.0 mph35.4 kmh 30.00 in1015.9 mb 0.00 in0.0 mm 0.00 in0.0 mm 0.01 in0.3 mm
05:35 PM 36.8°F2.7°C 31.2°F-0.4°C 80% 11.0 mph E17.7 kmh E 19.0 mph30.6 kmh 30.00 in1015.9 mb 0.00 in0.0 mm 0.00 in0.0 mm 0.01 in0.3 mm
05:40 PM 36.8°F2.7°C 31.2°F-0.4°C 80% 11.0 mph E17.7 kmh E 21.0 mph33.8 kmh 30.01 in1016.3 mb 0.00 in0.0 mm 0.00 in0.0 mm 0.01 in0.3 mm
05:45 PM 36.9°F2.7°C 31.3°F-0.4°C 80% 12.0 mph E19.3 kmh E 22.0 mph35.4 kmh 30.01 in1016.3 mb 0.00 in0.0 mm 0.00 in0.0 mm 0.01 in0.3 mm
05:50 PM 36.9°F2.7°C 31.0°F-0.6°C 79% 12.0 mph E19.3 kmh E 21.0 mph33.8 kmh 30.01 in1016.3 mb 0.00 in0.0 mm 0.00 in0.0 mm 0.01 in0.3 mm
05:55 PM 37.0°F2.8°C 31.1°F-0.5°C 79% 12.0 mph E19.3 kmh E 22.0 mph35.4 kmh 30.01 in1016.3 mb 0.00 in0.0 mm 0.00 in0.0 mm 0.01 in0.3 mm
06:00 PM 36.9°F2.7°C 31.0°F-0.6°C 79% 12.0 mph E19.3 kmh E 19.0 mph30.6 kmh 30.02 in1016.6 mb 0.00 in0.0 mm 0.00 in0.0 mm 0.01 in0.3 mm
06:05 PM 36.9°F2.7°C 31.0°F-0.6°C 79% 11.0 mph E17.7 kmh E 21.0 mph33.8 kmh 30.02 in1016.6 mb 0.00 in0.0 mm 0.00 in0.0 mm 0.01 in0.3 mm
06:10 PM 36.9°F2.7°C 31.0°F-0.6°C 79% 10.0 mph E16.1 kmh E 16.0 mph25.7 kmh 30.02 in1016.6 mb 0.00 in0.0 mm 0.00 in0.0 mm 0.01 in0.3 mm
06:15 PM 36.9°F2.7°C 31.0°F-0.6°C 79% 9.0 mph E14.5 kmh E 16.0 mph25.7 kmh 30.02 in1016.6 mb 0.00 in0.0 mm 0.00 in0.0 mm 0.01 in0.3 mm
06:20 PM 36.9°F2.7°C 31.0°F-0.6°C 79% 6.0 mph ESE9.7 kmh ESE 10.0 mph16.1 kmh 30.02 in1016.6 mb 0.00 in0.0 mm 0.00 in0.0 mm 0.01 in0.3 mm
06:25 PM 36.9°F2.7°C 31.0°F-0.6°C 79% 8.0 mph E12.9 kmh E 14.0 mph22.5 kmh 30.02 in1016.6 mb 0.00 in0.0 mm 0.00 in0.0 mm 0.01 in0.3 mm
06:30 PM 36.9°F2.7°C 31.0°F-0.6°C 79% 9.0 mph E14.5 kmh E 15.0 mph24.1 kmh 30.02 in1016.6 mb 0.00 in0.0 mm 0.00 in0.0 mm 0.01 in0.3 mm
06:35 PM 37.0°F2.8°C 31.1°F-0.5°C 79% 8.0 mph E12.9 kmh E 13.0 mph20.9 kmh 30.02 in1016.6 mb 0.00 in0.0 mm 0.00 in0.0 mm 0.01 in0.3 mm
06:40 PM 37.0°F2.8°C 31.1°F-0.5°C 79% 11.0 mph E17.7 kmh E 22.0 mph35.4 kmh 30.01 in1016.3 mb 0.00 in0.0 mm 0.00 in0.0 mm 0.01 in0.3 mm
06:45 PM 37.0°F2.8°C 31.1°F-0.5°C 79% 8.0 mph E12.9 kmh E 15.0 mph24.1 kmh 30.02 in1016.6 mb 0.00 in0.0 mm 0.00 in0.0 mm 0.01 in0.3 mm
06:50 PM 37.1°F2.8°C 31.2°F-0.4°C 79% 11.0 mph E17.7 kmh E 19.0 mph30.6 kmh 30.02 in1016.6 mb 0.00 in0.0 mm 0.00 in0.0 mm 0.01 in0.3 mm
06:55 PM 37.0°F2.8°C 31.4°F-0.3°C 80% 10.0 mph ESE16.1 kmh ESE 20.0 mph32.2 kmh 30.02 in1016.6 mb 0.00 in0.0 mm 0.00 in0.0 mm 0.01 in0.3 mm
07:00 PM 37.0°F2.8°C 31.4°F-0.3°C 80% 10.0 mph E16.1 kmh E 17.0 mph27.4 kmh 30.02 in1016.6 mb 0.00 in0.0 mm 0.00 in0.0 mm 0.01 in0.3 mm
07:05 PM 37.1°F2.8°C 31.5°F-0.3°C 80% 8.0 mph E12.9 kmh E 15.0 mph24.1 kmh 30.02 in1016.6 mb 0.00 in0.0 mm 0.00 in0.0 mm 0.01 in0.3 mm
07:10 PM 37.0°F2.8°C 31.4°F-0.3°C 80% 8.0 mph E12.9 kmh E 15.0 mph24.1 kmh 30.03 in1016.9 mb 0.00 in0.0 mm 0.00 in0.0 mm 0.01 in0.3 mm
07:15 PM 36.9°F2.7°C 31.6°F-0.2°C 81% 8.0 mph E12.9 kmh E 14.0 mph22.5 kmh 30.03 in1016.9 mb 0.00 in0.0 mm 0.00 in0.0 mm 0.01 in0.3 mm
07:20 PM 36.9°F2.7°C 31.6°F-0.2°C 81% 6.0 mph E9.7 kmh E 10.0 mph16.1 kmh 30.02 in1016.6 mb 0.00 in0.0 mm 0.00 in0.0 mm 0.01 in0.3 mm
07:25 PM 37.0°F2.8°C 31.7°F-0.2°C 81% 10.0 mph E16.1 kmh E 16.0 mph25.7 kmh 30.02 in1016.6 mb 0.00 in0.0 mm 0.00 in0.0 mm 0.01 in0.3 mm
07:30 PM 36.9°F2.7°C 31.6°F-0.2°C 81% 9.0 mph E14.5 kmh E 14.0 mph22.5 kmh 30.02 in1016.6 mb 0.00 in0.0 mm 0.00 in0.0 mm 0.01 in0.3 mm
07:35 PM 36.9°F2.7°C 31.6°F-0.2°C 81% 10.0 mph E16.1 kmh E 16.0 mph25.7 kmh 30.02 in1016.6 mb 0.00 in0.0 mm 0.00 in0.0 mm 0.01 in0.3 mm
07:40 PM 36.8°F2.7°C 31.5°F-0.3°C 81% 9.0 mph E14.5 kmh E 15.0 mph24.1 kmh 30.02 in1016.6 mb 0.00 in0.0 mm 0.00 in0.0 mm 0.01 in0.3 mm
07:45 PM 36.8°F2.7°C 31.5°F-0.3°C 81% 9.0 mph E14.5 kmh E 18.0 mph29.0 kmh 30.02 in1016.6 mb 0.00 in0.0 mm 0.00 in0.0 mm 0.01 in0.3 mm
07:50 PM 36.8°F2.7°C 31.2°F-0.4°C 80% 11.0 mph E17.7 kmh E 18.0 mph29.0 kmh 30.02 in1016.6 mb 0.00 in0.0 mm 0.00 in0.0 mm 0.01 in0.3 mm
07:55 PM 36.8°F2.7°C 31.2°F-0.4°C 80% 10.0 mph E16.1 kmh E 15.0 mph24.1 kmh 30.02 in1016.6 mb 0.00 in0.0 mm 0.00 in0.0 mm 0.01 in0.3 mm
08:00 PM 36.8°F2.7°C 31.2°F-0.4°C 80% 10.0 mph E16.1 kmh E 19.0 mph30.6 kmh 30.02 in1016.6 mb 0.00 in0.0 mm 0.00 in0.0 mm 0.01 in0.3 mm
08:05 PM 36.8°F2.7°C 31.2°F-0.4°C 80% 11.0 mph E17.7 kmh E 19.0 mph30.6 kmh 30.02 in1016.6 mb 0.00 in0.0 mm 0.00 in0.0 mm 0.01 in0.3 mm
08:10 PM 36.8°F2.7°C 31.2°F-0.4°C 80% 11.0 mph E17.7 kmh E 20.0 mph32.2 kmh 30.02 in1016.6 mb 0.00 in0.0 mm 0.00 in0.0 mm 0.01 in0.3 mm
08:15 PM 36.7°F2.6°C 31.1°F-0.5°C 80% 12.0 mph E19.3 kmh E 19.0 mph30.6 kmh 30.02 in1016.6 mb 0.00 in0.0 mm 0.00 in0.0 mm 0.01 in0.3 mm
08:20 PM 36.7°F2.6°C 30.8°F-0.7°C 79% 12.0 mph E19.3 kmh E 19.0 mph30.6 kmh 30.02 in1016.6 mb 0.00 in0.0 mm 0.00 in0.0 mm 0.01 in0.3 mm
08:25 PM 36.7°F2.6°C 30.8°F-0.7°C 79% 10.0 mph ESE16.1 kmh ESE 16.0 mph25.7 kmh 30.02 in1016.6 mb 0.00 in0.0 mm 0.00 in0.0 mm 0.01 in0.3 mm
08:30 PM 36.7°F2.6°C 30.8°F-0.7°C 79% 11.0 mph E17.7 kmh E 19.0 mph30.6 kmh 30.02 in1016.6 mb 0.00 in0.0 mm 0.00 in0.0 mm 0.01 in0.3 mm
08:35 PM 36.7°F2.6°C 30.8°F-0.7°C 79% 10.0 mph E16.1 kmh E 16.0 mph25.7 kmh 30.02 in1016.6 mb 0.00 in0.0 mm 0.00 in0.0 mm 0.01 in0.3 mm
08:40 PM 36.6°F2.6°C 30.7°F-0.7°C 79% 10.0 mph E16.1 kmh E 18.0 mph29.0 kmh 30.02 in1016.6 mb 0.00 in0.0 mm 0.00 in0.0 mm 0.01 in0.3 mm
08:45 PM 36.6°F2.6°C 30.7°F-0.7°C 79% 11.0 mph E17.7 kmh E 19.0 mph30.6 kmh 30.02 in1016.6 mb 0.00 in0.0 mm 0.00 in0.0 mm 0.01 in0.3 mm
08:50 PM 36.7°F2.6°C 30.8°F-0.7°C 79% 10.0 mph E16.1 kmh E 18.0 mph29.0 kmh 30.03 in1016.9 mb 0.00 in0.0 mm 0.00 in0.0 mm 0.01 in0.3 mm
08:55 PM 36.6°F2.6°C 30.7°F-0.7°C 79% 12.0 mph E19.3 kmh E 23.0 mph37.0 kmh 30.02 in1016.6 mb 0.00 in0.0 mm 0.00 in0.0 mm 0.01 in0.3 mm
09:00 PM 36.7°F2.6°C 30.8°F-0.7°C 79% 11.0 mph E17.7 kmh E 19.0 mph30.6 kmh 30.03 in1016.9 mb 0.00 in0.0 mm 0.00 in0.0 mm 0.01 in0.3 mm
09:05 PM 36.7°F2.6°C 30.8°F-0.7°C 79% 10.0 mph E16.1 kmh E 17.0 mph27.4 kmh 30.03 in1016.9 mb 0.00 in0.0 mm 0.00 in0.0 mm 0.01 in0.3 mm
09:10 PM 36.7°F2.6°C 30.8°F-0.7°C 79% 12.0 mph E19.3 kmh E 24.0 mph38.6 kmh 30.03 in1016.9 mb 0.00 in0.0 mm 0.00 in0.0 mm 0.01 in0.3 mm
09:15 PM 36.6°F2.6°C 31.0°F-0.6°C 80% 8.0 mph E12.9 kmh E 15.0 mph24.1 kmh 30.03 in1016.9 mb 0.00 in0.0 mm 0.00 in0.0 mm 0.01 in0.3 mm
09:20 PM 36.6°F2.6°C 31.0°F-0.6°C 80% 7.0 mph E11.3 kmh E 11.0 mph17.7 kmh 30.03 in1016.9 mb 0.00 in0.0 mm 0.00 in0.0 mm 0.01 in0.3 mm
09:25 PM 36.5°F2.5°C 30.9°F-0.6°C 80% 10.0 mph E16.1 kmh E 16.0 mph25.7 kmh 30.03 in1016.9 mb 0.00 in0.0 mm 0.00 in0.0 mm 0.01 in0.3 mm
09:30 PM 36.6°F2.6°C 31.0°F-0.6°C 80% 9.0 mph E14.5 kmh E 16.0 mph25.7 kmh 30.03 in1016.9 mb 0.00 in0.0 mm 0.00 in0.0 mm 0.01 in0.3 mm
09:35 PM 36.5°F2.5°C 30.9°F-0.6°C 80% 9.0 mph E14.5 kmh E 17.0 mph27.4 kmh 30.03 in1016.9 mb 0.00 in0.0 mm 0.00 in0.0 mm 0.01 in0.3 mm
09:40 PM 36.5°F2.5°C 30.9°F-0.6°C 80% 9.0 mph E14.5 kmh E 15.0 mph24.1 kmh 30.03 in1016.9 mb 0.00 in0.0 mm 0.00 in0.0 mm 0.01 in0.3 mm
09:45 PM 36.5°F2.5°C 30.9°F-0.6°C 80% 9.0 mph E14.5 kmh E 14.0 mph22.5 kmh 30.03 in1016.9 mb 0.00 in0.0 mm 0.00 in0.0 mm 0.01 in0.3 mm
09:50 PM 36.5°F2.5°C 30.9°F-0.6°C 80% 7.0 mph E11.3 kmh E 11.0 mph17.7 kmh 30.03 in1016.9 mb 0.00 in0.0 mm 0.00 in0.0 mm 0.01 in0.3 mm
09:55 PM 36.5°F2.5°C 31.2°F-0.4°C 81% 8.0 mph E12.9 kmh E 15.0 mph24.1 kmh 30.04 in1017.3 mb 0.00 in0.0 mm 0.00 in0.0 mm 0.01 in0.3 mm
10:00 PM 36.4°F2.4°C 30.8°F-0.7°C 80% 11.0 mph E17.7 kmh E 17.0 mph27.4 kmh 30.04 in1017.3 mb 0.00 in0.0 mm 0.00 in0.0 mm 0.01 in0.3 mm
10:05 PM 36.5°F2.5°C 30.9°F-0.6°C 80% 11.0 mph E17.7 kmh E 21.0 mph33.8 kmh 30.04 in1017.3 mb 0.00 in0.0 mm 0.00 in0.0 mm 0.01 in0.3 mm
10:10 PM 36.5°F2.5°C 30.9°F-0.6°C 80% 11.0 mph E17.7 kmh E 17.0 mph27.4 kmh 30.03 in1016.9 mb 0.00 in0.0 mm 0.00 in0.0 mm 0.01 in0.3 mm
10:15 PM 36.5°F2.5°C 30.9°F-0.6°C 80% 10.0 mph E16.1 kmh E 13.0 mph20.9 kmh 30.04 in1017.3 mb 0.00 in0.0 mm 0.00 in0.0 mm 0.01 in0.3 mm
10:20 PM 36.5°F2.5°C 30.9°F-0.6°C 80% 8.0 mph E12.9 kmh E 13.0 mph20.9 kmh 30.04 in1017.3 mb 0.00 in0.0 mm 0.00 in0.0 mm 0.01 in0.3 mm
10:25 PM 36.5°F2.5°C 30.9°F-0.6°C 80% 11.0 mph E17.7 kmh E 19.0 mph30.6 kmh 30.04 in1017.3 mb 0.00 in0.0 mm 0.00 in0.0 mm 0.01 in0.3 mm
10:30 PM 36.4°F2.4°C 30.8°F-0.7°C 80% 11.0 mph E17.7 kmh E 17.0 mph27.4 kmh 30.04 in1017.3 mb 0.00 in0.0 mm 0.00 in0.0 mm 0.01 in0.3 mm
10:35 PM 36.5°F2.5°C 30.9°F-0.6°C 80% 9.0 mph E14.5 kmh E 17.0 mph27.4 kmh 30.04 in1017.3 mb 0.00 in0.0 mm 0.00 in0.0 mm 0.01 in0.3 mm
10:40 PM 36.5°F2.5°C 31.2°F-0.4°C 81% 8.0 mph E12.9 kmh E 14.0 mph22.5 kmh 30.04 in1017.3 mb 0.00 in0.0 mm 0.00 in0.0 mm 0.01 in0.3 mm
10:45 PM 36.4°F2.4°C 31.1°F-0.5°C 81% 10.0 mph E16.1 kmh E 19.0 mph30.6 kmh 30.04 in1017.3 mb 0.00 in0.0 mm 0.00 in0.0 mm 0.01 in0.3 mm
10:50 PM 36.4°F2.4°C 31.1°F-0.5°C 81% 10.0 mph E16.1 kmh E 15.0 mph24.1 kmh 30.04 in1017.3 mb 0.00 in0.0 mm 0.00 in0.0 mm 0.01 in0.3 mm
10:55 PM 36.4°F2.4°C 31.1°F-0.5°C 81% 9.0 mph E14.5 kmh E 14.0 mph22.5 kmh 30.04 in1017.3 mb 0.00 in0.0 mm 0.00 in0.0 mm 0.01 in0.3 mm
11:00 PM 36.4°F2.4°C 31.1°F-0.5°C 81% 9.0 mph E14.5 kmh E 16.0 mph25.7 kmh 30.05 in1017.6 mb 0.00 in0.0 mm 0.00 in0.0 mm 0.01 in0.3 mm
11:05 PM 36.4°F2.4°C 31.1°F-0.5°C 81% 8.0 mph E12.9 kmh E 14.0 mph22.5 kmh 30.05 in1017.6 mb 0.00 in0.0 mm 0.00 in0.0 mm 0.01 in0.3 mm
11:10 PM 36.4°F2.4°C 31.1°F-0.5°C 81% 9.0 mph E14.5 kmh E 15.0 mph24.1 kmh 30.05 in1017.6 mb 0.00 in0.0 mm 0.00 in0.0 mm 0.01 in0.3 mm
11:15 PM 36.3°F2.4°C 31.3°F-0.4°C 82% 7.0 mph E11.3 kmh E 13.0 mph20.9 kmh 30.05 in1017.6 mb 0.00 in0.0 mm 0.00 in0.0 mm 0.01 in0.3 mm
11:20 PM 36.3°F2.4°C 31.3°F-0.4°C 82% 9.0 mph E14.5 kmh E 16.0 mph25.7 kmh 30.05 in1017.6 mb 0.00 in0.0 mm 0.00 in0.0 mm 0.01 in0.3 mm
11:25 PM 36.3°F2.4°C 31.3°F-0.4°C 82% 8.0 mph E12.9 kmh E 14.0 mph22.5 kmh 30.05 in1017.6 mb 0.00 in0.0 mm 0.00 in0.0 mm 0.01 in0.3 mm
11:30 PM 36.3°F2.4°C 31.3°F-0.4°C 82% 10.0 mph E16.1 kmh E 16.0 mph25.7 kmh 30.05 in1017.6 mb 0.00 in0.0 mm 0.00 in0.0 mm 0.01 in0.3 mm
11:35 PM 36.2°F2.3°C 31.2°F-0.4°C 82% 9.0 mph E14.5 kmh E 14.0 mph22.5 kmh 30.05 in1017.6 mb 0.00 in0.0 mm 0.00 in0.0 mm 0.01 in0.3 mm
11:40 PM 36.2°F2.3°C 31.2°F-0.4°C 82% 9.0 mph E14.5 kmh E 14.0 mph22.5 kmh 30.05 in1017.6 mb 0.00 in0.0 mm 0.00 in0.0 mm 0.01 in0.3 mm
11:45 PM 36.1°F2.3°C 31.1°F-0.5°C 82% 9.0 mph E14.5 kmh E 16.0 mph25.7 kmh 30.05 in1017.6 mb 0.00 in0.0 mm 0.00 in0.0 mm 0.01 in0.3 mm
11:50 PM 36.1°F2.3°C 31.1°F-0.5°C 82% 9.0 mph E14.5 kmh E 14.0 mph22.5 kmh 30.05 in1017.6 mb 0.00 in0.0 mm 0.00 in0.0 mm 0.01 in0.3 mm
11:55 PM 36.1°F2.3°C 31.1°F-0.5°C 82% 10.0 mph E16.1 kmh E 18.0 mph29.0 kmh 30.05 in1017.6 mb 0.00 in0.0 mm 0.00 in0.0 mm 0.01 in0.3 mm